Jackson, MN

07:46 CST 3. Prosinec 2016 (GMT -0600)
Jackson Municipal | | Change Station

Výška 1447 ft 43.65 °N, 94.99 °W | Updated 11 minutes ago

Overcast
Zataženo
27 °F
Pocit jako 27 °F
S
0
Vítr proměnlivý Vítr od severní

Dnes
Vysoké -- | Nízké -- °F
--% Možnost srážek
Včera
Vysoké -- | Nízké -- °F
Precip. -- inčů
Tlak 30.27 inčů
Viditelnost 10.0 mílí
Zataženo Zataženo 2200 ft
Rosný bod 21 °F
Vlhkost 80%
Dešťové srážky 0.00 inčů
Sněhová pokrývka Není k dispozici
7:36 AM 4:43 PM
Dorůstající srpek, 15% visible
METAR KMJQ 031335Z AUTO 00000KT 10SM OVC022 M03/M06 A3027 RMK AO2
Tlak 30.27 inčů
Viditelnost 10.0 mílí
Zataženo Zataženo 2200 ft
Rosný bod 21 °F
Vlhkost 80%
Dešťové srážky 0.00 inčů
Sněhová pokrývka Není k dispozici
7:36 AM 4:43 PM
Dorůstající srpek, 15% visible
METAR KMJQ 031335Z AUTO 00000KT 10SM OVC022 M03/M06 A3027 RMK AO2

10-Day Weather Forecast

Almanac

Astronomie

Dec. 03, 2016 Východ Západ
Skutečný čas
Občanský soumrak
Námořní soumrak
Astronomický soumrak
Měsíc
Délka denního světla
Délka dne
Tomorrow will be .
, % of the Moon is Illuminated

Dnešní extrémy

State Highs State Lows

Community

WunderPhotos

Upload Photos

1,955,446 snímků staženo!

WunderBlog® & News

Nearby

Kvalita ovzduší

  Kvalita ovzduší Index kvality ovzduší Polutant
Not available.

Výška sněhu

Station Hloubka Nadmořská výška

Seizmická činnost

Město Distance Mag. Čas & datum
Minimální zobrazený rozsah je 2.5.

Pobřežní teplota vody

Lokalita Teplota

Stations

Poblíž povětrnostní stanice

Lokace stanice Tepl. Ochlazování větrem Rosný bod Vlhkost Vítr Precip. Výška Čas hlášení Typ
                   

Watches & Warnings

There are currently no watches in effect.